createdAt,value
2024-04-15T00:00:53.223Z,30.8
2024-04-15T00:01:56.063Z,30.8
2024-04-15T00:02:58.554Z,30.7
2024-04-15T00:04:01.345Z,30.5
2024-04-15T00:05:04.254Z,30.5
2024-04-15T00:06:06.498Z,30.5
2024-04-15T00:07:09.047Z,30.5
2024-04-15T00:08:12.055Z,30.4
2024-04-15T00:09:14.467Z,30.5
2024-04-15T00:10:16.967Z,30.5
2024-04-15T00:11:20.160Z,30.4
2024-04-15T00:12:22.789Z,30.7
2024-04-15T00:13:25.213Z,30.6
2024-04-15T00:14:27.666Z,30.7
2024-04-15T00:15:30.227Z,30.8
2024-04-15T00:16:32.815Z,30.8
2024-04-15T00:17:35.928Z,30.8
2024-04-15T00:18:38.673Z,30.8
2024-04-15T00:19:41.583Z,30.6
2024-04-15T00:20:44.011Z,30.8
2024-04-15T00:21:46.513Z,30.7
2024-04-15T00:22:49.135Z,30.8
2024-04-15T00:23:51.377Z,31
2024-04-15T00:24:53.760Z,30.9
2024-04-15T00:25:56.397Z,30.9
2024-04-15T00:26:58.872Z,30.6
2024-04-15T00:28:01.309Z,30.8
2024-04-15T00:29:03.904Z,30.9
2024-04-15T00:30:06.194Z,31.1
2024-04-15T00:31:08.656Z,31
2024-04-15T00:32:11.474Z,30.8
2024-04-15T00:33:14.192Z,30.8
2024-04-15T00:34:17.248Z,30.9
2024-04-15T00:35:20.029Z,30.8
2024-04-15T00:36:23.912Z,30.6
2024-04-15T00:37:26.317Z,30.5
2024-04-15T00:38:28.790Z,30.7
2024-04-15T00:39:31.011Z,30.7
2024-04-15T00:40:33.463Z,30.7
2024-04-15T00:41:35.872Z,30.8
2024-04-15T00:42:38.286Z,30.6
2024-04-15T00:43:40.884Z,30.7
2024-04-15T00:44:43.117Z,30.6
2024-04-15T00:45:45.639Z,30.4
2024-04-15T00:46:48.328Z,30.6
2024-04-15T00:47:50.737Z,30.6
2024-04-15T00:48:53.340Z,30.8
2024-04-15T00:49:56.139Z,30.6
2024-04-15T00:50:58.612Z,30.7
2024-04-15T00:52:01.281Z,30.8
2024-04-15T00:53:03.842Z,30.6
2024-04-15T00:54:06.471Z,30.5
2024-04-15T00:55:08.982Z,30.5
2024-04-15T00:56:11.855Z,30.5
2024-04-15T00:57:14.270Z,30.4
2024-04-15T00:58:16.726Z,30.4
2024-04-15T00:59:19.710Z,30.7
2024-04-15T01:00:22.155Z,30.7
2024-04-15T01:01:24.622Z,30.8
2024-04-15T01:02:27.889Z,31.1
2024-04-15T01:03:30.632Z,31.2
2024-04-15T01:04:33.288Z,31.2
2024-04-15T01:05:35.959Z,31.1
2024-04-15T01:06:38.439Z,30.9
2024-04-15T01:07:41.102Z,30.7
2024-04-15T01:08:43.544Z,30.7
2024-04-15T01:09:46.046Z,30.6
2024-04-15T01:10:54.761Z,30.7
2024-04-15T01:11:53.857Z,7.4
2024-04-15T01:12:56.644Z,11.7
2024-04-15T01:13:59.162Z,15.4
2024-04-15T01:15:01.656Z,18.2
2024-04-15T01:16:03.945Z,20.8
2024-04-15T01:17:06.668Z,22.5
2024-04-15T01:18:08.988Z,24.1
2024-04-15T01:19:12.129Z,25.4
2024-04-15T01:20:15.238Z,26.4
2024-04-15T01:21:17.670Z,27.3
2024-04-15T01:22:20.121Z,27.9
2024-04-15T01:23:22.855Z,28.4
2024-04-15T01:24:25.293Z,28.7
2024-04-15T01:25:27.732Z,29
2024-04-15T01:26:30.166Z,29.2
2024-04-15T01:27:32.711Z,29.3
2024-04-15T01:28:35.325Z,29.6
2024-04-15T01:29:37.849Z,29.8
2024-04-15T01:30:40.439Z,29.8
2024-04-15T01:31:42.906Z,29.9
2024-04-15T01:32:45.528Z,30
2024-04-15T01:33:48.185Z,30.2
2024-04-15T01:34:50.971Z,30.6
2024-04-15T01:35:53.456Z,30.4
2024-04-15T01:36:55.939Z,30.7
2024-04-15T01:37:58.373Z,30.5
2024-04-15T01:39:00.815Z,30.5
2024-04-15T01:40:03.526Z,30.5
2024-04-15T01:41:05.977Z,30.3
2024-04-15T01:42:08.413Z,30.5
2024-04-15T01:43:10.902Z,30.7
2024-04-15T01:44:14.102Z,30.5
2024-04-15T01:45:16.508Z,30.5
2024-04-15T01:46:19.028Z,30.5
2024-04-15T01:47:21.583Z,30.5
2024-04-15T01:48:24.272Z,30.6
2024-04-15T01:49:26.737Z,30.6
2024-04-15T01:50:29.201Z,30.7
2024-04-15T01:51:31.439Z,30.6
2024-04-15T01:52:34.188Z,30.7
2024-04-15T01:53:36.635Z,30.5
2024-04-15T01:54:39.016Z,30.7
2024-04-15T01:55:41.647Z,30.7
2024-04-15T01:56:43.965Z,30.6
2024-04-15T01:57:46.463Z,30.5
2024-04-15T01:58:49.029Z,30.7
2024-04-15T01:59:51.402Z,30.4
2024-04-15T02:00:53.864Z,30.4
2024-04-15T02:01:56.738Z,30.4
2024-04-15T02:02:59.210Z,30.5
2024-04-15T02:04:01.881Z,30.6
2024-04-15T02:05:04.777Z,30.6
2024-04-15T02:06:07.199Z,30.8
2024-04-15T02:07:09.444Z,30.6
2024-04-15T02:08:12.027Z,30.6
2024-04-15T02:09:14.307Z,30.5
2024-04-15T02:10:16.821Z,30.7
2024-04-15T02:11:19.804Z,30.9
2024-04-15T02:12:22.716Z,30.7
2024-04-15T02:13:24.946Z,30.8
2024-04-15T02:14:27.355Z,30.8
2024-04-15T02:15:29.787Z,30.9
2024-04-15T02:16:32.228Z,31
2024-04-15T02:17:34.530Z,31
2024-04-15T02:18:37.480Z,31
2024-04-15T02:19:40.476Z,30.8
2024-04-15T02:20:42.902Z,31
2024-04-15T02:21:44.981Z,31
2024-04-15T02:22:47.374Z,31.3
2024-04-15T02:23:49.793Z,31.2
2024-04-15T02:24:52.220Z,30.9
2024-04-15T02:25:54.923Z,30.7
2024-04-15T02:26:57.176Z,30.5
2024-04-15T02:27:59.611Z,30.6
2024-04-15T02:29:02.272Z,30.5
2024-04-15T02:30:04.735Z,30.5
2024-04-15T02:31:07.206Z,30.5
2024-04-15T02:32:10.031Z,30.5
2024-04-15T02:33:12.855Z,30.6
2024-04-15T02:34:14.964Z,30.7
2024-04-15T02:35:17.623Z,30.6
2024-04-15T02:36:19.876Z,30.5
2024-04-15T02:37:22.330Z,30.4
2024-04-15T02:38:24.936Z,30.3
2024-04-15T02:39:27.197Z,30.3
2024-04-15T02:40:29.604Z,30.2
2024-04-15T02:41:31.819Z,30.5
2024-04-15T02:42:34.220Z,30.5
2024-04-15T02:43:36.657Z,30.6
2024-04-15T02:44:39.161Z,30.5
2024-04-15T02:45:41.588Z,30.5
2024-04-15T02:46:44.142Z,30.6
2024-04-15T02:47:46.438Z,30.4
2024-04-15T02:48:49.163Z,30.4
2024-04-15T02:49:51.907Z,30.5
2024-04-15T02:50:54.335Z,30.7
2024-04-15T02:51:56.878Z,30.6
2024-04-15T02:52:59.465Z,30.5
2024-04-15T02:54:01.965Z,30.5
2024-04-15T02:55:04.415Z,30.8
2024-04-15T02:56:06.895Z,31.1
2024-04-15T02:57:09.303Z,30.9
2024-04-15T02:58:11.738Z,31
2024-04-15T02:59:14.891Z,30.6
2024-04-15T03:00:17.337Z,30.5
2024-04-15T03:01:20.258Z,30.4
2024-04-15T03:02:23.375Z,30.6
2024-04-15T03:03:25.658Z,30.6
2024-04-15T03:04:28.132Z,30.7
2024-04-15T03:05:30.930Z,30.5
2024-04-15T03:06:33.392Z,30.5
2024-04-15T03:07:35.822Z,30.4
2024-04-15T03:08:38.102Z,30.5
2024-04-15T03:09:40.387Z,30.5
2024-04-15T03:10:43.074Z,30.4
2024-04-15T03:11:45.582Z,30.4
2024-04-15T03:12:48.409Z,30.4
2024-04-15T03:13:51.231Z,30.7
2024-04-15T03:14:53.682Z,30.5
2024-04-15T03:15:57.734Z,30.7
2024-04-15T03:17:01.372Z,7.4
2024-04-15T03:18:04.722Z,12
2024-04-15T03:19:07.805Z,15.5
2024-04-15T03:20:10.607Z,18.4
2024-04-15T03:21:13.023Z,20.7
2024-04-15T03:22:15.557Z,22.6
2024-04-15T03:23:17.955Z,24.1
2024-04-15T03:24:20.362Z,25.4
2024-04-15T03:25:22.838Z,26.6
2024-04-15T03:26:25.630Z,27.5
2024-04-15T03:27:28.065Z,28
2024-04-15T03:28:30.539Z,28.3
2024-04-15T03:29:32.954Z,28.7
2024-04-15T03:30:35.410Z,29
2024-04-15T03:31:37.834Z,29.5
2024-04-15T03:32:40.638Z,29.7
2024-04-15T03:33:43.443Z,29.7
2024-04-15T03:34:46.074Z,29.8
2024-04-15T03:35:48.509Z,29.8
2024-04-15T03:36:51.142Z,30.1
2024-04-15T03:37:53.717Z,30.3
2024-04-15T03:38:56.127Z,30.2
2024-04-15T03:39:58.741Z,30.3
2024-04-15T03:41:01.410Z,30.4
2024-04-15T03:42:03.845Z,30.5
2024-04-15T03:43:06.281Z,30.3
2024-04-15T03:44:09.069Z,30.3
2024-04-15T03:45:11.548Z,30.1
2024-04-15T03:46:13.982Z,30.3
2024-04-15T03:47:16.832Z,30.6
2024-04-15T03:48:19.569Z,30.6
2024-04-15T03:49:22.497Z,30.7
2024-04-15T03:50:25.220Z,30.6
2024-04-15T03:51:27.701Z,30.4
2024-04-15T03:52:30.192Z,30.3
2024-04-15T03:53:32.833Z,30.3
2024-04-15T03:54:35.075Z,30.4
2024-04-15T03:55:37.518Z,30.6
2024-04-15T03:56:40.333Z,30.6
2024-04-15T03:57:42.775Z,30.6
2024-04-15T03:58:45.398Z,30.4
2024-04-15T03:59:47.852Z,30.5
2024-04-15T04:00:50.466Z,30.5
2024-04-15T04:01:53.547Z,30.4
2024-04-15T04:02:56.649Z,30.2
2024-04-15T04:03:59.366Z,30.4
2024-04-15T04:05:02.364Z,30.4
2024-04-15T04:06:09.551Z,30.2
2024-04-15T04:07:10.413Z,7.2
2024-04-15T04:08:13.073Z,11.6
2024-04-15T04:09:15.502Z,15.3
2024-04-15T04:10:19.378Z,18.2
2024-04-15T04:11:23.271Z,7.6
2024-04-15T04:12:26.037Z,11.8
2024-04-15T04:13:28.490Z,15.3
2024-04-15T04:14:30.941Z,18.3
2024-04-15T04:15:33.348Z,20.8
2024-04-15T04:16:35.734Z,22.6
2024-04-15T04:17:38.073Z,24
2024-04-15T04:18:41.143Z,25
2024-04-15T04:19:44.220Z,26.3
2024-04-15T04:20:46.627Z,26.9
2024-04-15T04:21:49.089Z,27.7
2024-04-15T04:22:51.865Z,28.3
2024-04-15T04:23:54.289Z,28.8
2024-04-15T04:24:56.857Z,29.1
2024-04-15T04:25:59.284Z,29.2
2024-04-15T04:27:01.776Z,29.6
2024-04-15T04:28:04.103Z,30.1
2024-04-15T04:29:06.615Z,30.2
2024-04-15T04:30:09.060Z,30.3
2024-04-15T04:31:11.576Z,30.4
2024-04-15T04:32:14.157Z,30.3
2024-04-15T04:33:17.045Z,30.4
2024-04-15T04:34:19.827Z,30.4
2024-04-15T04:35:22.444Z,30.2
2024-04-15T04:36:24.879Z,30.1
2024-04-15T04:37:27.275Z,30.5
2024-04-15T04:38:29.675Z,30.4
2024-04-15T04:39:32.155Z,30.6
2024-04-15T04:40:34.673Z,30.8
2024-04-15T04:41:37.169Z,30.8
2024-04-15T04:42:39.412Z,30.8
2024-04-15T04:43:41.876Z,31
2024-04-15T04:44:44.129Z,31.1
2024-04-15T04:45:46.415Z,31
2024-04-15T04:46:48.807Z,31.2
2024-04-15T04:47:51.433Z,30.9
2024-04-15T04:48:54.262Z,30.7
2024-04-15T04:49:56.591Z,30.7
2024-04-15T04:50:59.014Z,30.6
2024-04-15T04:52:01.484Z,30.4
2024-04-15T04:53:04.039Z,30.4
2024-04-15T04:54:06.499Z,30.5
2024-04-15T04:55:08.970Z,30.4
2024-04-15T04:56:11.618Z,30.3
2024-04-15T04:57:14.138Z,30.3
2024-04-15T04:58:16.408Z,30.4
2024-04-15T04:59:19.329Z,30.2
2024-04-15T05:00:21.547Z,30.4
2024-04-15T05:01:24.110Z,30.4
2024-04-15T05:02:26.954Z,30.3
2024-04-15T05:03:29.546Z,30.3
2024-04-15T05:04:32.337Z,30.3
2024-04-15T05:05:35.000Z,30.4
2024-04-15T05:06:37.442Z,30.3
2024-04-15T05:07:39.775Z,30.2
2024-04-15T05:08:42.077Z,30.3
2024-04-15T05:09:44.561Z,30.4
2024-04-15T05:10:47.312Z,30.4
2024-04-15T05:11:49.705Z,30.5
2024-04-15T05:12:52.555Z,30.5
2024-04-15T05:13:55.231Z,30.6
2024-04-15T05:14:57.724Z,30.6
2024-04-15T05:16:01.782Z,30.5
2024-04-15T05:17:04.673Z,30.4
2024-04-15T05:18:06.975Z,30.4
2024-04-15T05:19:09.855Z,30.5
2024-04-15T05:20:12.557Z,30.6
2024-04-15T05:21:15.015Z,30.6
2024-04-15T05:22:17.471Z,30.5
2024-04-15T05:23:20.126Z,30.5
2024-04-15T05:24:22.580Z,30.4
2024-04-15T05:25:25.017Z,30.4
2024-04-15T05:26:27.683Z,30.4
2024-04-15T05:27:29.924Z,30.5
2024-04-15T05:28:32.175Z,30.5
2024-04-15T05:29:34.617Z,30.7
2024-04-15T05:30:37.084Z,30.8
2024-04-15T05:31:39.661Z,30.6
2024-04-15T05:32:42.304Z,30.6
2024-04-15T05:33:45.198Z,30.5
2024-04-15T05:34:47.783Z,30.4
2024-04-15T05:35:50.261Z,30.4
2024-04-15T05:36:52.811Z,30.4
2024-04-15T05:37:55.132Z,30.4
2024-04-15T05:38:57.542Z,30.5
2024-04-15T05:39:59.977Z,30.6
2024-04-15T05:41:02.886Z,30.7
2024-04-15T05:42:05.390Z,30.5
2024-04-15T05:43:07.896Z,30.5
2024-04-15T05:44:10.672Z,30.5
2024-04-15T05:45:13.095Z,30.3
2024-04-15T05:46:15.356Z,30.4
2024-04-15T05:47:18.159Z,30.5
2024-04-15T05:48:20.671Z,30.7
2024-04-15T05:49:23.641Z,30.8
2024-04-15T05:50:26.326Z,30.7
2024-04-15T05:51:28.754Z,30.7
2024-04-15T05:52:31.203Z,30.7
2024-04-15T05:53:33.716Z,30.7
2024-04-15T05:54:35.952Z,30.6
2024-04-15T05:55:38.402Z,30.5
2024-04-15T05:56:40.826Z,30.5
2024-04-15T05:57:43.310Z,30.4
2024-04-15T05:58:45.902Z,30.4
2024-04-15T05:59:48.314Z,30.5
2024-04-15T06:00:56.218Z,7.5
2024-04-15T06:01:59.408Z,12
2024-04-15T06:03:02.859Z,15.4
2024-04-15T06:04:05.671Z,18.4
2024-04-15T06:05:08.421Z,20.7
2024-04-15T06:06:10.852Z,22.9
2024-04-15T06:07:13.411Z,24.6
2024-04-15T06:08:16.249Z,25.9
2024-04-15T06:09:18.683Z,26.9
2024-04-15T06:10:21.293Z,27.4
2024-04-15T06:11:24.229Z,28
2024-04-15T06:12:26.942Z,28.3
2024-04-15T06:13:29.406Z,28.9
2024-04-15T06:14:31.916Z,29.3
2024-04-15T06:15:34.355Z,29.4
2024-04-15T06:16:37.173Z,29.5
2024-04-15T06:17:41.901Z,29.7
2024-04-15T06:18:44.648Z,30.2
2024-04-15T06:19:47.373Z,30.4
2024-04-15T06:20:49.772Z,30.4
2024-04-15T06:21:52.368Z,30.6
2024-04-15T06:22:55.856Z,30.8
2024-04-15T06:23:58.296Z,30.9
2024-04-15T06:25:00.743Z,30.7
2024-04-15T06:26:03.486Z,30.5
2024-04-15T06:27:07.201Z,30.5
2024-04-15T06:28:09.687Z,30.5
2024-04-15T06:29:12.415Z,30.5
2024-04-15T06:30:15.117Z,30.4
2024-04-15T06:31:17.621Z,30.5
2024-04-15T06:32:20.471Z,30.7
2024-04-15T06:33:23.482Z,30.9
2024-04-15T06:34:26.446Z,31.1
2024-04-15T06:35:28.965Z,31.1
2024-04-15T06:36:31.499Z,31.1
2024-04-15T06:37:33.796Z,30.9
2024-04-15T06:38:36.322Z,31
2024-04-15T06:39:38.852Z,30.8
2024-04-15T06:40:41.111Z,30.6
2024-04-15T06:41:43.595Z,30.8
2024-04-15T06:42:45.875Z,30.6
2024-04-15T06:43:48.475Z,30.6
2024-04-15T06:44:50.970Z,30.8
2024-04-15T06:45:53.434Z,30.9
2024-04-15T06:46:55.992Z,30.7
2024-04-15T06:47:58.759Z,30.6
2024-04-15T06:49:01.431Z,30.5
2024-04-15T06:50:04.139Z,30.6
2024-04-15T06:51:06.613Z,30.8
2024-04-15T06:52:09.078Z,30.8
2024-04-15T06:53:11.845Z,31
2024-04-15T06:54:14.343Z,31
2024-04-15T06:55:16.856Z,30.7
2024-04-15T06:56:19.476Z,30.5
2024-04-15T06:57:21.902Z,30.6
2024-04-15T06:58:24.353Z,30.7
2024-04-15T06:59:26.792Z,31
2024-04-15T07:00:29.237Z,30.8
2024-04-15T07:01:33.594Z,30.8
2024-04-15T07:02:37.023Z,7.2
2024-04-15T07:03:40.021Z,12
2024-04-15T07:04:42.670Z,15.6
2024-04-15T07:05:45.380Z,18.4
2024-04-15T07:06:48.731Z,20.8
2024-04-15T07:07:51.582Z,22.8
2024-04-15T07:08:54.041Z,24.5
2024-04-15T07:09:57.725Z,25.7
2024-04-15T07:11:00.693Z,26.6
2024-04-15T07:12:03.588Z,27.3
2024-04-15T07:13:06.108Z,28
2024-04-15T07:14:08.838Z,28.6
2024-04-15T07:15:11.280Z,28.7
2024-04-15T07:16:13.706Z,29
2024-04-15T07:17:16.830Z,29.2
2024-04-15T07:18:19.382Z,29.7
2024-04-15T07:19:22.033Z,29.6
2024-04-15T07:20:24.986Z,29.8
2024-04-15T07:21:27.392Z,30.1
2024-04-15T07:22:29.602Z,30.2
2024-04-15T07:23:32.027Z,30.2
2024-04-15T07:24:34.478Z,30.4
2024-04-15T07:25:36.987Z,30.7
2024-04-15T07:26:39.428Z,30.8
2024-04-15T07:27:41.874Z,30.9
2024-04-15T07:28:44.444Z,31
2024-04-15T07:29:46.970Z,30.8
2024-04-15T07:30:49.237Z,30.7
2024-04-15T07:31:51.624Z,30.7
2024-04-15T07:32:54.368Z,30.7
2024-04-15T07:33:56.936Z,30.6
2024-04-15T07:34:59.375Z,30.6
2024-04-15T07:36:01.950Z,30.7
2024-04-15T07:37:04.125Z,30.7
2024-04-15T07:38:06.756Z,30.8
2024-04-15T07:39:08.805Z,30.8
2024-04-15T07:40:11.286Z,30.9
2024-04-15T07:41:13.922Z,31
2024-04-15T07:42:20.403Z,30.8
2024-04-15T07:43:21.550Z,7.4
2024-04-15T07:44:24.382Z,11.9
2024-04-15T07:45:26.864Z,15.3
2024-04-15T07:46:29.320Z,18.3
2024-04-15T07:47:32.078Z,20.8
2024-04-15T07:48:34.895Z,22.8
2024-04-15T07:49:37.338Z,24.4
2024-04-15T07:50:39.589Z,25.6
2024-04-15T07:51:42.155Z,26.6
2024-04-15T07:52:44.631Z,27.3
2024-04-15T07:53:47.061Z,27.7
2024-04-15T07:54:49.480Z,28.5
2024-04-15T07:55:52.150Z,29
2024-04-15T07:56:54.672Z,29.5
2024-04-15T07:57:57.108Z,29.6
2024-04-15T07:58:59.761Z,29.8
2024-04-15T08:00:02.383Z,29.9
2024-04-15T08:01:04.965Z,30.3
2024-04-15T08:02:10.267Z,30.2
2024-04-15T08:03:13.157Z,7.4
2024-04-15T08:04:15.939Z,11.7
2024-04-15T08:05:18.870Z,15.4
2024-04-15T08:06:21.350Z,18.2
2024-04-15T08:07:23.937Z,20.8
2024-04-15T08:08:26.592Z,22.8
2024-04-15T08:09:29.055Z,24.3
2024-04-15T08:10:31.504Z,25.5
2024-04-15T08:11:34.354Z,26.5
2024-04-15T08:12:36.840Z,27.2
2024-04-15T08:13:41.108Z,27.7
2024-04-15T08:14:43.558Z,28.3
2024-04-15T08:15:46.036Z,29.1
2024-04-15T08:16:48.805Z,29.5
2024-04-15T08:17:52.063Z,30
2024-04-15T08:18:54.756Z,30
2024-04-15T08:19:57.284Z,30
2024-04-15T08:20:59.525Z,30.2
2024-04-15T08:22:02.110Z,30.3
2024-04-15T08:23:04.891Z,30.3
2024-04-15T08:24:07.349Z,30.5
2024-04-15T08:25:10.068Z,30.5
2024-04-15T08:26:12.984Z,30.6
2024-04-15T08:27:15.543Z,30.6
2024-04-15T08:28:18.135Z,30.5
2024-04-15T08:29:21.017Z,30.5
2024-04-15T08:30:23.425Z,30.5
2024-04-15T08:31:25.907Z,30.4
2024-04-15T08:32:28.660Z,30.3
2024-04-15T08:33:31.690Z,30.4
2024-04-15T08:34:34.763Z,30.5
2024-04-15T08:35:37.481Z,30.7
2024-04-15T08:36:40.381Z,30.9
2024-04-15T08:37:42.983Z,31
2024-04-15T08:38:45.236Z,31.1
2024-04-15T08:39:47.817Z,31.2
2024-04-15T08:40:50.387Z,31.1
2024-04-15T08:41:57.682Z,30.9
2024-04-15T08:42:58.011Z,7.6
2024-04-15T08:44:00.378Z,11.8
2024-04-15T08:45:02.847Z,15.4
2024-04-15T08:46:05.453Z,18.1
2024-04-15T08:47:08.451Z,20.5
2024-04-15T08:48:12.366Z,22.5
2024-04-15T08:49:15.078Z,23.9
2024-04-15T08:50:17.709Z,25
2024-04-15T08:51:20.174Z,26.1
2024-04-15T08:52:22.642Z,27
2024-04-15T08:53:25.502Z,27.8
2024-04-15T08:54:27.924Z,28.4
2024-04-15T08:55:30.402Z,29.1
2024-04-15T08:56:33.062Z,29.4
2024-04-15T08:57:35.513Z,29.4
2024-04-15T08:58:37.601Z,29.5
2024-04-15T08:59:40.252Z,29.6
2024-04-15T09:00:42.833Z,29.8
2024-04-15T09:01:45.222Z,29.8
2024-04-15T09:02:47.929Z,30.2
2024-04-15T09:03:50.740Z,30.3
2024-04-15T09:04:56.106Z,30.4
2024-04-15T09:05:58.642Z,7.3
2024-04-15T09:07:01.203Z,11.7
2024-04-15T09:08:03.904Z,15.2
2024-04-15T09:09:06.499Z,18.2
2024-04-15T09:10:09.116Z,20.6
2024-04-15T09:11:11.977Z,22.6
2024-04-15T09:12:14.496Z,24.1
2024-04-15T09:13:16.994Z,25.3
2024-04-15T09:14:19.679Z,26.2
2024-04-15T09:15:22.165Z,27.1
2024-04-15T09:16:24.857Z,27.6
2024-04-15T09:17:27.922Z,28.1
2024-04-15T09:18:30.912Z,28.7
2024-04-15T09:19:33.551Z,29
2024-04-15T09:20:39.794Z,29.3
2024-04-15T09:21:41.216Z,7.3
2024-04-15T09:22:43.939Z,12
2024-04-15T09:23:46.501Z,15.2
2024-04-15T09:24:48.979Z,18.2
2024-04-15T09:25:51.448Z,20.5
2024-04-15T09:26:53.961Z,22.5
2024-04-15T09:27:56.468Z,24.2
2024-04-15T09:28:59.275Z,25.3
2024-04-15T09:30:01.919Z,26.3
2024-04-15T09:31:04.464Z,27
2024-04-15T09:32:06.820Z,27.8
2024-04-15T09:33:09.516Z,28.3
2024-04-15T09:34:12.276Z,28.9
2024-04-15T09:35:14.935Z,29.3
2024-04-15T09:36:17.482Z,29.4
2024-04-15T09:37:20.138Z,29.4
2024-04-15T09:38:23.045Z,29.8
2024-04-15T09:39:25.476Z,29.9
2024-04-15T09:40:28.014Z,30.2
2024-04-15T09:41:30.595Z,30.6
2024-04-15T09:42:33.058Z,30.8
2024-04-15T09:43:35.510Z,30.6
2024-04-15T09:44:40.072Z,30.6
2024-04-15T09:45:43.160Z,7.1
2024-04-15T09:46:45.682Z,11.6
2024-04-15T09:47:48.545Z,15.5
2024-04-15T09:48:51.623Z,18.2
2024-04-15T09:49:54.363Z,20.4
2024-04-15T09:50:56.847Z,22.2
2024-04-15T09:51:59.334Z,23.7
2024-04-15T09:53:02.052Z,24.9
2024-04-15T09:54:04.534Z,25.7
2024-04-15T09:55:06.987Z,26.6
2024-04-15T09:56:09.922Z,27.4
2024-04-15T09:57:12.513Z,28
2024-04-15T09:58:15.095Z,28.6
2024-04-15T09:59:17.535Z,29
2024-04-15T10:00:19.780Z,29.6
2024-04-15T10:01:22.345Z,29.5
2024-04-15T10:02:25.423Z,29.7
2024-04-15T10:03:28.174Z,29.6
2024-04-15T10:04:30.658Z,29.8
2024-04-15T10:05:33.755Z,30.1
2024-04-15T10:06:36.236Z,30.1
2024-04-15T10:07:38.684Z,30.1
2024-04-15T10:08:42.921Z,30.5
2024-04-15T10:09:45.743Z,30.7
2024-04-15T10:10:48.356Z,30.8
2024-04-15T10:11:50.778Z,30.7
2024-04-15T10:12:53.284Z,30.8
2024-04-15T10:13:55.866Z,30.7
2024-04-15T10:14:58.323Z,30.6
2024-04-15T10:16:00.946Z,30.5
2024-04-15T10:17:05.958Z,30.4
2024-04-15T10:18:08.921Z,30.6
2024-04-15T10:19:11.873Z,30.5
2024-04-15T10:20:14.456Z,30.6
2024-04-15T10:21:16.935Z,30.6
2024-04-15T10:22:19.386Z,30.5
2024-04-15T10:23:21.964Z,30.5
2024-04-15T10:24:24.406Z,30.5
2024-04-15T10:25:27.371Z,30.4
2024-04-15T10:26:29.867Z,30.6
2024-04-15T10:27:32.350Z,30.6
2024-04-15T10:28:34.681Z,30.7
2024-04-15T10:29:37.103Z,30.6
2024-04-15T10:30:39.527Z,30.8
2024-04-15T10:31:41.973Z,30.6
2024-04-15T10:32:44.449Z,30.5
2024-04-15T10:33:47.478Z,30.4
2024-04-15T10:34:50.129Z,30.3
2024-04-15T10:35:52.572Z,30.5
2024-04-15T10:36:55.399Z,30.5
2024-04-15T10:37:59.162Z,30.8
2024-04-15T10:39:01.440Z,30.8
2024-04-15T10:40:04.074Z,30.7
2024-04-15T10:41:06.830Z,30.8
2024-04-15T10:42:09.284Z,30.7
2024-04-15T10:43:11.758Z,30.6
2024-04-15T10:44:14.527Z,30.7
2024-04-15T10:45:17.024Z,30.8
2024-04-15T10:46:19.456Z,30.5
2024-04-15T10:47:22.541Z,30.5
2024-04-15T10:48:25.187Z,30.6
2024-04-15T10:49:27.957Z,30.6
2024-04-15T10:50:30.691Z,30.7
2024-04-15T10:51:33.162Z,30.8
2024-04-15T10:52:35.650Z,30.7
2024-04-15T10:53:38.295Z,30.8
2024-04-15T10:54:40.583Z,30.8
2024-04-15T10:55:42.835Z,30.8
2024-04-15T10:56:45.319Z,30.7
2024-04-15T10:57:47.651Z,30.5
2024-04-15T10:58:50.261Z,30.4
2024-04-15T10:59:53.998Z,30.3
2024-04-15T11:00:56.767Z,30.5
2024-04-15T11:01:59.633Z,30.5
2024-04-15T11:03:01.955Z,30.4
2024-04-15T11:04:04.767Z,30.7
2024-04-15T11:05:07.826Z,30.7
2024-04-15T11:06:10.763Z,30.8
2024-04-15T11:07:19.137Z,7.1
2024-04-15T11:08:21.771Z,11.7
2024-04-15T11:09:24.237Z,15.6
2024-04-15T11:10:26.872Z,18.4
2024-04-15T11:11:29.950Z,20.8
2024-04-15T11:12:32.651Z,22.6
2024-04-15T11:13:34.931Z,23.9
2024-04-15T11:14:37.300Z,25.4
2024-04-15T11:15:39.605Z,26.2
2024-04-15T11:16:42.452Z,26.9
2024-04-15T11:17:45.693Z,27.7
2024-04-15T11:18:48.318Z,28.1
2024-04-15T11:19:51.164Z,28.5
2024-04-15T11:20:53.844Z,28.8
2024-04-15T11:21:56.726Z,29.4
2024-04-15T11:23:01.842Z,29.6
2024-04-15T11:24:04.619Z,29.9
2024-04-15T11:25:07.340Z,30
2024-04-15T11:26:09.995Z,30.1
2024-04-15T11:27:12.592Z,30.1
2024-04-15T11:28:17.814Z,30.2
2024-04-15T11:29:20.099Z,7.5
2024-04-15T11:30:22.589Z,11.8
2024-04-15T11:31:25.214Z,15.4
2024-04-15T11:32:28.149Z,18.3
2024-04-15T11:33:31.286Z,20.6
2024-04-15T11:34:34.149Z,22.3
2024-04-15T11:35:36.792Z,24
2024-04-15T11:36:39.316Z,25.2
2024-04-15T11:37:41.762Z,26.1
2024-04-15T11:38:44.192Z,26.8
2024-04-15T11:39:46.609Z,27.7
2024-04-15T11:40:49.031Z,28.4
2024-04-15T11:41:51.457Z,28.8
2024-04-15T11:42:53.979Z,29.3
2024-04-15T11:43:56.728Z,29.6
2024-04-15T11:44:59.180Z,29.9
2024-04-15T11:46:01.594Z,30.3
2024-04-15T11:47:05.047Z,30.2
2024-04-15T11:48:08.117Z,30.3
2024-04-15T11:49:10.866Z,30.4
2024-04-15T11:50:13.656Z,30.6
2024-04-15T11:51:16.145Z,30.5
2024-04-15T11:52:18.996Z,30.4
2024-04-15T11:53:21.675Z,30.2
2024-04-15T11:54:24.167Z,30.5
2024-04-15T11:55:26.714Z,30.6
2024-04-15T11:56:30.018Z,30.4
2024-04-15T11:57:32.487Z,30.6
2024-04-15T11:58:34.945Z,30.7
2024-04-15T11:59:37.650Z,30.6
2024-04-15T12:00:39.889Z,30.5
2024-04-15T12:01:42.543Z,30.5
2024-04-15T12:02:45.290Z,30.5
2024-04-15T12:03:47.762Z,30.4
2024-04-15T12:04:50.721Z,30.6
2024-04-15T12:05:53.517Z,30.5
2024-04-15T12:06:56.112Z,30.7
2024-04-15T12:07:58.747Z,30.7
2024-04-15T12:09:01.183Z,30.6
2024-04-15T12:10:03.694Z,30.8
2024-04-15T12:11:06.455Z,30.8
2024-04-15T12:12:09.267Z,30.8
2024-04-15T12:13:11.778Z,30.5
2024-04-15T12:14:14.561Z,30.7
2024-04-15T12:15:17.081Z,30.6
2024-04-15T12:16:19.672Z,30.7
2024-04-15T12:17:22.650Z,30.9
2024-04-15T12:18:25.954Z,30.7
2024-04-15T12:19:28.468Z,30.5
2024-04-15T12:20:31.081Z,30.5
2024-04-15T12:21:35.279Z,30.6
2024-04-15T12:22:38.181Z,30.6
2024-04-15T12:23:40.786Z,30.7
2024-04-15T12:24:53.101Z,30.4
2024-04-15T12:25:48.593Z,7.2
2024-04-15T12:26:51.721Z,11.9
2024-04-15T12:27:54.210Z,15.3
2024-04-15T12:28:56.911Z,18.3
2024-04-15T12:29:59.347Z,20.5
2024-04-15T12:31:01.884Z,22.5
2024-04-15T12:32:04.632Z,24.1
2024-04-15T12:33:07.415Z,25.3
2024-04-15T12:34:10.240Z,26.2
2024-04-15T12:35:13.025Z,26.8
2024-04-15T12:36:15.144Z,27.7
2024-04-15T12:37:17.618Z,28.2
2024-04-15T12:38:20.373Z,28.5
2024-04-15T12:39:23.031Z,28.8
2024-04-15T12:40:25.498Z,29.3
2024-04-15T12:41:28.309Z,29.6
2024-04-15T12:42:30.746Z,29.8
2024-04-15T12:43:33.227Z,30
2024-04-15T12:44:35.771Z,30.2
2024-04-15T12:45:38.246Z,30.2
2024-04-15T12:46:40.838Z,30.3
2024-04-15T12:47:43.368Z,30.2
2024-04-15T12:48:46.432Z,30.1
2024-04-15T12:49:49.165Z,30.1
2024-04-15T12:50:51.587Z,30.2
2024-04-15T12:51:54.054Z,30.1
2024-04-15T12:52:56.708Z,29.9
2024-04-15T12:53:59.154Z,30
2024-04-15T12:55:01.749Z,30
2024-04-15T12:56:04.676Z,30.3
2024-04-15T12:57:07.185Z,30.3
2024-04-15T12:58:09.440Z,30.2
2024-04-15T12:59:12.081Z,30.3
2024-04-15T13:00:14.529Z,30.2
2024-04-15T13:01:17.083Z,30.2
2024-04-15T13:02:20.129Z,30.3
2024-04-15T13:03:23.077Z,30.6
2024-04-15T13:04:26.178Z,30.6
2024-04-15T13:05:29.297Z,30.3
2024-04-15T13:06:36.393Z,7.2
2024-04-15T13:07:38.613Z,11.7
2024-04-15T13:08:41.090Z,15.4
2024-04-15T13:09:43.567Z,18
2024-04-15T13:10:46.219Z,20.2
2024-04-15T13:11:48.936Z,22.1
2024-04-15T13:12:51.724Z,23.5
2024-04-15T13:13:54.333Z,24.8
2024-04-15T13:14:56.843Z,26
2024-04-15T13:15:59.302Z,26.7
2024-04-15T13:17:03.485Z,27.3
2024-04-15T13:18:06.157Z,27.8
2024-04-15T13:19:09.222Z,28.3
2024-04-15T13:20:11.814Z,28.6
2024-04-15T13:21:14.283Z,28.8
2024-04-15T13:22:16.715Z,29.1
2024-04-15T13:23:19.339Z,29.4
2024-04-15T13:24:21.779Z,29.7
2024-04-15T13:25:24.343Z,29.8
2024-04-15T13:26:27.394Z,29.8
2024-04-15T13:27:29.857Z,29.7
2024-04-15T13:28:32.323Z,29.9
2024-04-15T13:29:35.382Z,30.1
2024-04-15T13:30:40.960Z,30.3
2024-04-15T13:31:48.653Z,30.2
2024-04-15T13:32:50.439Z,7.4
2024-04-15T13:33:54.911Z,11.7
2024-04-15T13:34:59.352Z,15
2024-04-15T13:36:03.818Z,17.9
2024-04-15T13:38:25.746Z,22
2024-04-15T13:39:28.198Z,23.7
2024-04-15T13:40:30.495Z,25
2024-04-15T13:41:33.190Z,26.1
2024-04-15T13:42:35.625Z,26.9
2024-04-15T13:43:38.036Z,27.4
2024-04-15T13:44:40.483Z,27.8
2024-04-15T13:45:42.737Z,28.2
2024-04-15T13:46:45.242Z,28.6
2024-04-15T13:47:47.862Z,29.1
2024-04-15T13:48:50.415Z,29.5
2024-04-15T13:49:52.918Z,29.8
2024-04-15T13:50:55.395Z,30
2024-04-15T13:51:57.911Z,30.2
2024-04-15T13:53:00.561Z,30.3
2024-04-15T13:54:03.008Z,30.3
2024-04-15T13:55:05.462Z,30.2
2024-04-15T13:56:08.049Z,30.3
2024-04-15T13:57:10.966Z,30.5
2024-04-15T13:58:13.199Z,30.6
2024-04-15T13:59:15.856Z,30.8
2024-04-15T14:00:18.565Z,30.7